Batley, United Kingdom
Current Conditions -  °F | °C
As of 11:50 AM on Wednesday 28 Jan 2015 (Local Time) from EGNM Reporting Station
Scattered Clouds Scattered Clouds  
Wind Chill: 25°   Ceiling: Unl
Heat Index: 37°   Visibility: 6mi
Dew Point: 30°   Wind: 29mph
Humidity: 75%   Direction: 270°W
Pressure: 29.32"   Gusts: 46mph
Location:  53.72°N, 1.63°W
Report Text: EGNM 281150Z 27025G40KT 230V310 9999 FEW010 SCT025 03/M01 Q0993
Loading
Personal Weather Stations






























Interactive Weather Map New forecast layout! Learn more

10-Day Weather Forecast

Advertisements
Track Severe Weather on mobile